KRTS

Details ICAO KRTS
Name Reno Stead
Region United States
Timezone America/Los_Angeles (UTC-8.0)
Plans Departing 20
Arriving 15
Stats Elevation 5,050 ft / 1,539 m (AMSL)
Location 39.667800° -119.876622°
Runways 2
Magnetic Variation 13.460° E
Sunrise 2017-12-16 15:15:30 UTC / 2017-12-16 07:15:30 Local
Sunset 2017-12-17 00:37:51 UTC / 2017-12-16 16:37:51 Local
Advertisement - Login to hide

Runways

ID Width Length Bearing (true) Bearing (mag) Surface Threshold Offset Overrun Length
08 150 ft / 46 m 7,589 ft / 2,313 m 95.92° 82.46° Asphalt 0 ft / 0 m 0 ft / 0 m
14 150 ft / 46 m 9,009 ft / 2,746 m 153.68° 140.22° Asphalt 0 ft / 0 m 1,000 ft / 305 m
26 150 ft / 46 m 7,589 ft / 2,313 m 275.93° 262.47° Asphalt 0 ft / 0 m 0 ft / 0 m
32 150 ft / 46 m 9,009 ft / 2,746 m 333.69° 320.23° Asphalt 0 ft / 0 m 700 ft / 213 m

Map

Weather


0- 5 10 15 20 25 30 35+ Temperature / ° C

Clouds and Precipitation
Forecast for 2017-12-17 06:00 UTC. Updated an hour ago

Ground ~20,000 ft ~40,000 ft Winds

METAR

KRTS 170615Z AUTO 06008KT 10SM CLR M04/M10 A3021 RMK AO2

TAF

Not found

Frequencies

Recorded 135.17 MHz AWOS 3
Approach 126.30 MHz APP/DEP
Unicom 122.70 MHz CTAF/UNICOM
Warning: Do not use this data for real-world aviation or navigation. No guarantee of current accuracy is given.